sensor_id;sensor_type;location;lat;lon;timestamp;pressure;altitude;pressure_sealevel;temperature;humidity
44027;BME280;29696;55.698;37.460;2023-04-01T00:01:05;98096.69;;;2.80;80.36
44027;BME280;29696;55.698;37.460;2023-04-01T00:03:33;98091.47;;;2.80;80.68
44027;BME280;29696;55.698;37.460;2023-04-01T00:06:00;98093.00;;;2.83;80.28
44027;BME280;29696;55.698;37.460;2023-04-01T00:08:27;98100.00;;;2.82;79.85
44027;BME280;29696;55.698;37.460;2023-04-01T00:10:54;98085.69;;;2.77;79.64
44027;BME280;29696;55.698;37.460;2023-04-01T00:13:21;98097.91;;;2.76;79.75
44027;BME280;29696;55.698;37.460;2023-04-01T00:15:48;98092.22;;;2.60;79.41
44027;BME280;29696;55.698;37.460;2023-04-01T00:18:14;98091.06;;;2.53;80.30
44027;BME280;29696;55.698;37.460;2023-04-01T00:20:46;98090.81;;;2.56;81.19
44027;BME280;29696;55.698;37.460;2023-04-01T00:23:13;98090.00;;;2.44;81.08
44027;BME280;29696;55.698;37.460;2023-04-01T00:25:40;98090.72;;;2.46;81.36
44027;BME280;29696;55.698;37.460;2023-04-01T00:28:07;98088.94;;;2.46;81.78
44027;BME280;29696;55.698;37.460;2023-04-01T00:30:35;98079.91;;;2.50;82.23
44027;BME280;29696;55.698;37.460;2023-04-01T00:33:02;98076.72;;;2.58;82.33
44027;BME280;29696;55.698;37.460;2023-04-01T00:35:29;98070.88;;;2.66;81.86
44027;BME280;29696;55.698;37.460;2023-04-01T00:37:55;98071.81;;;2.76;81.24
44027;BME280;29696;55.698;37.460;2023-04-01T00:40:38;98070.50;;;2.82;80.58
44027;BME280;29696;55.698;37.460;2023-04-01T00:43:12;98073.38;;;2.67;79.87
44027;BME280;29696;55.698;37.460;2023-04-01T00:45:42;98070.53;;;2.59;80.84
44027;BME280;29696;55.698;37.460;2023-04-01T00:48:11;98068.75;;;2.60;81.42
44027;BME280;29696;55.698;37.460;2023-04-01T00:50:41;98069.00;;;2.57;81.19
44027;BME280;29696;55.698;37.460;2023-04-01T00:53:09;98079.09;;;2.50;81.04
44027;BME280;29696;55.698;37.460;2023-04-01T00:55:39;98071.66;;;2.45;81.32
44027;BME280;29696;55.698;37.460;2023-04-01T00:58:10;98067.25;;;2.46;81.76
44027;BME280;29696;55.698;37.460;2023-04-01T01:00:38;98075.91;;;2.46;82.16
44027;BME280;29696;55.698;37.460;2023-04-01T01:03:04;98067.47;;;2.54;82.31
44027;BME280;29696;55.698;37.460;2023-04-01T01:06:06;98071.25;;;2.72;82.14
44027;BME280;29696;55.698;37.460;2023-04-01T01:11:50;98072.66;;;2.65;81.85
44027;BME280;29696;55.698;37.460;2023-04-01T01:17:48;98076.56;;;2.71;81.87
44027;BME280;29696;55.698;37.460;2023-04-01T01:27:02;98080.72;;;2.73;80.63
44027;BME280;29696;55.698;37.460;2023-04-01T01:29:59;98080.31;;;2.78;81.12
44027;BME280;29696;55.698;37.460;2023-04-01T01:39:08;98076.94;;;2.66;81.66
44027;BME280;29696;55.698;37.460;2023-04-01T01:42:00;98076.31;;;2.74;82.02
44027;BME280;29696;55.698;37.460;2023-04-01T01:44:50;98083.53;;;2.82;81.52
44027;BME280;29696;55.698;37.460;2023-04-01T01:47:32;98083.88;;;2.88;81.00
44027;BME280;29696;55.698;37.460;2023-04-01T01:50:00;98090.13;;;2.97;80.65
44027;BME280;29696;55.698;37.460;2023-04-01T01:52:27;98082.97;;;2.99;80.25
44027;BME280;29696;55.698;37.460;2023-04-01T01:54:56;98077.06;;;2.97;80.09
44027;BME280;29696;55.698;37.460;2023-04-01T01:57:29;98077.28;;;3.05;80.02
44027;BME280;29696;55.698;37.460;2023-04-01T02:00:08;98084.03;;;3.08;79.60
44027;BME280;29696;55.698;37.460;2023-04-01T02:02:46;98081.09;;;3.01;79.60
44027;BME280;29696;55.698;37.460;2023-04-01T02:05:23;98081.81;;;3.03;79.96
44027;BME280;29696;55.698;37.460;2023-04-01T02:08:05;98085.94;;;3.06;79.23
44027;BME280;29696;55.698;37.460;2023-04-01T02:10:36;98088.91;;;3.01;79.73
44027;BME280;29696;55.698;37.460;2023-04-01T02:13:20;98084.41;;;3.03;80.03
44027;BME280;29696;55.698;37.460;2023-04-01T02:15:52;98095.16;;;3.10;79.84
44027;BME280;29696;55.698;37.460;2023-04-01T02:18:22;98080.34;;;3.10;79.77
44027;BME280;29696;55.698;37.460;2023-04-01T02:20:49;98095.56;;;3.05;79.29
44027;BME280;29696;55.698;37.460;2023-04-01T02:23:15;98087.50;;;2.97;79.21
44027;BME280;29696;55.698;37.460;2023-04-01T02:25:43;98093.06;;;3.04;80.16
44027;BME280;29696;55.698;37.460;2023-04-01T02:28:10;98097.47;;;3.03;80.01
44027;BME280;29696;55.698;37.460;2023-04-01T02:30:41;98095.41;;;3.07;80.26
44027;BME280;29696;55.698;37.460;2023-04-01T02:33:08;98090.91;;;3.09;80.45
44027;BME280;29696;55.698;37.460;2023-04-01T02:35:36;98097.66;;;3.11;80.21
44027;BME280;29696;55.698;37.460;2023-04-01T02:38:03;98100.28;;;3.11;80.09
44027;BME280;29696;55.698;37.460;2023-04-01T02:40:41;98103.22;;;3.18;79.93
44027;BME280;29696;55.698;37.460;2023-04-01T02:43:08;98104.91;;;3.08;79.72
44027;BME280;29696;55.698;37.460;2023-04-01T02:45:35;98103.38;;;3.05;79.64
44027;BME280;29696;55.698;37.460;2023-04-01T02:48:02;98106.25;;;3.02;79.47
44027;BME280;29696;55.698;37.460;2023-04-01T02:50:29;98105.88;;;2.95;79.65
44027;BME280;29696;55.698;37.460;2023-04-01T02:52:55;98102.59;;;2.93;79.94
44027;BME280;29696;55.698;37.460;2023-04-01T02:55:22;98100.66;;;2.95;79.94
44027;BME280;29696;55.698;37.460;2023-04-01T02:57:48;98098.44;;;2.91;80.22
44027;BME280;29696;55.698;37.460;2023-04-01T03:00:15;98102.13;;;2.88;80.25
44027;BME280;29696;55.698;37.460;2023-04-01T03:02:42;98102.00;;;2.90;80.60
44027;BME280;29696;55.698;37.460;2023-04-01T03:05:10;98107.94;;;2.92;80.43
44027;BME280;29696;55.698;37.460;2023-04-01T03:07:36;98107.44;;;2.98;80.07
44027;BME280;29696;55.698;37.460;2023-04-01T03:10:03;98109.31;;;2.96;79.65
44027;BME280;29696;55.698;37.460;2023-04-01T03:12:29;98106.84;;;2.94;79.67
44027;BME280;29696;55.698;37.460;2023-04-01T03:14:56;98101.31;;;2.88;79.53
44027;BME280;29696;55.698;37.460;2023-04-01T03:17:23;98112.09;;;2.83;79.79
44027;BME280;29696;55.698;37.460;2023-04-01T03:19:49;98115.66;;;2.82;80.26
44027;BME280;29696;55.698;37.460;2023-04-01T03:22:16;98108.19;;;2.78;80.38
44027;BME280;29696;55.698;37.460;2023-04-01T03:24:44;98115.34;;;2.76;80.65
44027;BME280;29696;55.698;37.460;2023-04-01T03:27:11;98117.09;;;2.75;80.98
44027;BME280;29696;55.698;37.460;2023-04-01T03:29:38;98118.63;;;2.78;81.09
44027;BME280;29696;55.698;37.460;2023-04-01T03:32:05;98124.66;;;2.78;81.06
44027;BME280;29696;55.698;37.460;2023-04-01T03:34:31;98132.88;;;2.73;80.77
44027;BME280;29696;55.698;37.460;2023-04-01T03:36:57;98121.47;;;2.74;81.59
44027;BME280;29696;55.698;37.460;2023-04-01T03:39:24;98123.59;;;2.81;81.44
44027;BME280;29696;55.698;37.460;2023-04-01T03:41:51;98130.34;;;2.83;80.90
44027;BME280;29696;55.698;37.460;2023-04-01T03:44:17;98136.88;;;2.89;80.84
44027;BME280;29696;55.698;37.460;2023-04-01T03:46:47;98135.81;;;2.91;80.89
44027;BME280;29696;55.698;37.460;2023-04-01T03:49:14;98141.84;;;2.92;80.53
44027;BME280;29696;55.698;37.460;2023-04-01T03:51:42;98150.88;;;2.88;80.33
44027;BME280;29696;55.698;37.460;2023-04-01T03:54:10;98156.59;;;2.82;80.30
44027;BME280;29696;55.698;37.460;2023-04-01T03:56:37;98151.47;;;2.80;80.78
44027;BME280;29696;55.698;37.460;2023-04-01T03:59:05;98155.72;;;2.81;80.88
44027;BME280;29696;55.698;37.460;2023-04-01T04:01:32;98154.78;;;2.82;81.55
44027;BME280;29696;55.698;37.460;2023-04-01T04:03:59;98169.38;;;2.85;81.20
44027;BME280;29696;55.698;37.460;2023-04-01T04:06:27;98171.84;;;2.97;81.00
44027;BME280;29696;55.698;37.460;2023-04-01T04:08:53;98163.28;;;2.95;80.74
44027;BME280;29696;55.698;37.460;2023-04-01T04:11:21;98166.97;;;3.04;80.89
44027;BME280;29696;55.698;37.460;2023-04-01T04:13:48;98164.25;;;3.06;80.15
44027;BME280;29696;55.698;37.460;2023-04-01T04:16:17;98183.19;;;3.08;79.87
44027;BME280;29696;55.698;37.460;2023-04-01T04:18:47;98181.31;;;2.98;79.78
44027;BME280;29696;55.698;37.460;2023-04-01T04:21:14;98182.53;;;2.94;80.05
44027;BME280;29696;55.698;37.460;2023-04-01T04:23:42;98186.53;;;2.98;80.83
44027;BME280;29696;55.698;37.460;2023-04-01T04:26:11;98182.50;;;3.06;80.85
44027;BME280;29696;55.698;37.460;2023-04-01T04:28:38;98183.09;;;3.09;80.82
44027;BME280;29696;55.698;37.460;2023-04-01T04:31:06;98188.78;;;3.14;80.17
44027;BME280;29696;55.698;37.460;2023-04-01T04:33:34;98188.16;;;3.11;79.67
44027;BME280;29696;55.698;37.460;2023-04-01T04:36:03;98186.59;;;3.19;80.28
44027;BME280;29696;55.698;37.460;2023-04-01T04:38:29;98186.75;;;3.18;80.02
44027;BME280;29696;55.698;37.460;2023-04-01T04:40:56;98196.22;;;3.19;79.74
44027;BME280;29696;55.698;37.460;2023-04-01T04:43:22;98187.69;;;3.17;79.92
44027;BME280;29696;55.698;37.460;2023-04-01T04:45:49;98186.84;;;3.16;80.33
44027;BME280;29696;55.698;37.460;2023-04-01T04:48:16;98192.06;;;3.16;80.22
44027;BME280;29696;55.698;37.460;2023-04-01T04:50:49;98193.84;;;3.16;79.95
44027;BME280;29696;55.698;37.460;2023-04-01T04:53:18;98194.94;;;3.13;80.23
44027;BME280;29696;55.698;37.460;2023-04-01T04:55:46;98204.69;;;3.11;80.29
44027;BME280;29696;55.698;37.460;2023-04-01T04:58:34;98200.78;;;3.06;80.08
44027;BME280;29696;55.698;37.460;2023-04-01T05:01:09;98207.16;;;3.13;80.50
44027;BME280;29696;55.698;37.460;2023-04-01T05:03:37;98205.84;;;3.07;80.68
44027;BME280;29696;55.698;37.460;2023-04-01T05:06:06;98214.88;;;3.14;81.37
44027;BME280;29696;55.698;37.460;2023-04-01T05:08:33;98211.63;;;3.22;81.37
44027;BME280;29696;55.698;37.460;2023-04-01T05:11:01;98207.25;;;3.23;80.44
44027;BME280;29696;55.698;37.460;2023-04-01T05:13:33;98213.25;;;3.34;80.63
44027;BME280;29696;55.698;37.460;2023-04-01T05:15:59;98208.16;;;3.44;80.02
44027;BME280;29696;55.698;37.460;2023-04-01T05:18:26;98216.88;;;3.54;79.99
44027;BME280;29696;55.698;37.460;2023-04-01T05:20:54;98223.72;;;3.66;79.50
44027;BME280;29696;55.698;37.460;2023-04-01T05:23:22;98229.16;;;3.75;79.11
44027;BME280;29696;55.698;37.460;2023-04-01T05:25:49;98231.03;;;3.84;78.80
44027;BME280;29696;55.698;37.460;2023-04-01T05:28:17;98231.47;;;3.89;78.02
44027;BME280;29696;55.698;37.460;2023-04-01T05:30:45;98224.56;;;3.88;77.64
44027;BME280;29696;55.698;37.460;2023-04-01T05:33:24;98232.88;;;3.93;77.88
44027;BME280;29696;55.698;37.460;2023-04-01T05:35:50;98232.16;;;3.91;77.89
44027;BME280;29696;55.698;37.460;2023-04-01T05:38:16;98227.44;;;3.85;78.02
44027;BME280;29696;55.698;37.460;2023-04-01T05:40:43;98236.97;;;3.86;78.57
44027;BME280;29696;55.698;37.460;2023-04-01T05:43:09;98232.31;;;3.89;78.96
44027;BME280;29696;55.698;37.460;2023-04-01T05:45:36;98230.50;;;3.90;78.60
44027;BME280;29696;55.698;37.460;2023-04-01T05:48:35;98230.56;;;4.00;78.64
44027;BME280;29696;55.698;37.460;2023-04-01T05:51:03;98231.16;;;4.03;78.56
44027;BME280;29696;55.698;37.460;2023-04-01T05:53:29;98241.50;;;4.05;77.98
44027;BME280;29696;55.698;37.460;2023-04-01T05:55:56;98231.84;;;4.05;77.82
44027;BME280;29696;55.698;37.460;2023-04-01T05:58:22;98240.72;;;4.14;78.06
44027;BME280;29696;55.698;37.460;2023-04-01T06:00:49;98237.97;;;4.16;77.62
44027;BME280;29696;55.698;37.460;2023-04-01T06:03:16;98237.72;;;4.19;76.96
44027;BME280;29696;55.698;37.460;2023-04-01T06:05:44;98239.84;;;4.25;76.68
44027;BME280;29696;55.698;37.460;2023-04-01T06:08:13;98245.13;;;4.34;76.44
44027;BME280;29696;55.698;37.460;2023-04-01T06:14:33;98257.88;;;4.49;76.28
44027;BME280;29696;55.698;37.460;2023-04-01T06:27:23;98265.28;;;4.74;76.33
44027;BME280;29696;55.698;37.460;2023-04-01T06:30:05;98255.22;;;4.70;75.90
44027;BME280;29696;55.698;37.460;2023-04-01T06:36:05;98269.16;;;4.80;76.26
44027;BME280;29696;55.698;37.460;2023-04-01T06:51:46;98287.31;;;5.02;75.43
44027;BME280;29696;55.698;37.460;2023-04-01T06:54:36;98282.75;;;4.95;74.63
44027;BME280;29696;55.698;37.460;2023-04-01T06:57:41;98278.41;;;5.15;75.48
44027;BME280;29696;55.698;37.460;2023-04-01T07:03:33;98282.97;;;6.11;72.97
44027;BME280;29696;55.698;37.460;2023-04-01T07:06:12;98272.47;;;6.40;69.67
44027;BME280;29696;55.698;37.460;2023-04-01T07:08:51;98291.53;;;6.90;68.99
44027;BME280;29696;55.698;37.460;2023-04-01T07:11:38;98275.31;;;7.31;67.79
44027;BME280;29696;55.698;37.460;2023-04-01T07:14:41;98286.78;;;7.58;66.16
44027;BME280;29696;55.698;37.460;2023-04-01T07:17:22;98281.69;;;7.92;65.76
44027;BME280;29696;55.698;37.460;2023-04-01T07:19:56;98287.41;;;8.06;63.77
44027;BME280;29696;55.698;37.460;2023-04-01T07:22:50;98287.16;;;8.35;63.75
44027;BME280;29696;55.698;37.460;2023-04-01T07:25:43;98293.72;;;9.09;61.18
44027;BME280;29696;55.698;37.460;2023-04-01T07:28:34;98287.09;;;9.39;59.18
44027;BME280;29696;55.698;37.460;2023-04-01T07:31:13;98294.00;;;9.91;60.27
44027;BME280;29696;55.698;37.460;2023-04-01T07:34:28;98286.94;;;10.07;57.51
44027;BME280;29696;55.698;37.460;2023-04-01T07:37:09;98285.63;;;10.03;56.84
44027;BME280;29696;55.698;37.460;2023-04-01T07:43:14;98301.16;;;10.31;56.46
44027;BME280;29696;55.698;37.460;2023-04-01T07:50:16;98297.22;;;10.35;55.80
44027;BME280;29696;55.698;37.460;2023-04-01T07:52:38;98299.00;;;10.43;56.58
44027;BME280;29696;55.698;37.460;2023-04-01T07:55:21;98307.72;;;10.11;55.88
44027;BME280;29696;55.698;37.460;2023-04-01T08:12:04;98312.38;;;11.30;52.92
44027;BME280;29696;55.698;37.460;2023-04-01T08:26:40;98317.59;;;12.40;46.01
44027;BME280;29696;55.698;37.460;2023-04-01T08:29:22;98316.38;;;12.80;45.59
44027;BME280;29696;55.698;37.460;2023-04-01T08:32:03;98315.16;;;13.20;44.55
44027;BME280;29696;55.698;37.460;2023-04-01T08:34:40;98324.47;;;12.87;44.73
44027;BME280;29696;55.698;37.460;2023-04-01T08:37:28;98326.88;;;12.59;46.42
44027;BME280;29696;55.698;37.460;2023-04-01T08:40:16;98324.75;;;12.08;47.38
44027;BME280;29696;55.698;37.460;2023-04-01T08:49:56;98331.47;;;12.19;48.11
44027;BME280;29696;55.698;37.460;2023-04-01T08:56:18;98336.25;;;11.61;47.92
44027;BME280;29696;55.698;37.460;2023-04-01T09:27:31;98362.72;;;9.30;53.66
44027;BME280;29696;55.698;37.460;2023-04-01T09:34:30;98365.56;;;9.45;52.07
44027;BME280;29696;55.698;37.460;2023-04-01T09:37:36;98368.38;;;9.18;53.07
44027;BME280;29696;55.698;37.460;2023-04-01T10:36:57;98399.56;;;8.96;50.50
44027;BME280;29696;55.698;37.460;2023-04-01T11:04:37;98416.16;;;8.71;50.71
44027;BME280;29696;55.698;37.460;2023-04-01T11:45:53;98425.63;;;10.61;47.74
44027;BME280;29696;55.698;37.460;2023-04-01T11:58:22;98417.53;;;10.46;48.94
44027;BME280;29696;55.698;37.460;2023-04-01T12:01:20;98432.22;;;10.48;48.58
44027;BME280;29696;55.698;37.460;2023-04-01T12:07:23;98423.63;;;10.46;47.70
44027;BME280;29696;55.698;37.460;2023-04-01T12:13:40;98423.00;;;10.44;48.09
44027;BME280;29696;55.698;37.460;2023-04-01T12:16:58;98431.09;;;10.67;47.62
44027;BME280;29696;55.698;37.460;2023-04-01T12:26:56;98441.66;;;11.08;46.45
44027;BME280;29696;55.698;37.460;2023-04-01T12:29:59;98439.38;;;10.89;46.60
44027;BME280;29696;55.698;37.460;2023-04-01T12:36:11;98439.66;;;10.45;45.28
44027;BME280;29696;55.698;37.460;2023-04-01T13:15:44;98471.78;;;9.90;46.10
44027;BME280;29696;55.698;37.460;2023-04-01T13:18:59;98465.66;;;9.89;45.72
44027;BME280;29696;55.698;37.460;2023-04-01T13:24:56;98479.00;;;9.53;48.13
44027;BME280;29696;55.698;37.460;2023-04-01T13:27:40;98476.59;;;9.34;47.06
44027;BME280;29696;55.698;37.460;2023-04-01T13:30:29;98486.63;;;9.30;47.82
44027;BME280;29696;55.698;37.460;2023-04-01T13:44:41;98502.09;;;8.89;50.57
44027;BME280;29696;55.698;37.460;2023-04-01T13:47:36;98503.34;;;8.85;51.26
44027;BME280;29696;55.698;37.460;2023-04-01T13:59:51;98522.34;;;8.71;53.39
44027;BME280;29696;55.698;37.460;2023-04-01T14:12:47;98514.75;;;8.40;55.85
44027;BME280;29696;55.698;37.460;2023-04-01T14:29:23;98526.19;;;8.21;58.42
44027;BME280;29696;55.698;37.460;2023-04-01T14:32:11;98530.47;;;8.22;58.66
44027;BME280;29696;55.698;37.460;2023-04-01T14:48:28;98547.81;;;8.15;59.40
44027;BME280;29696;55.698;37.460;2023-04-01T14:51:08;98543.56;;;8.05;60.46
44027;BME280;29696;55.698;37.460;2023-04-01T14:53:38;98554.94;;;8.05;60.88
44027;BME280;29696;55.698;37.460;2023-04-01T14:56:10;98550.91;;;8.01;61.26
44027;BME280;29696;55.698;37.460;2023-04-01T14:58:47;98559.91;;;8.08;61.62
44027;BME280;29696;55.698;37.460;2023-04-01T15:01:40;98561.28;;;8.12;61.92
44027;BME280;29696;55.698;37.460;2023-04-01T15:10:31;98574.47;;;8.03;63.85
44027;BME280;29696;55.698;37.460;2023-04-01T15:13:53;98571.84;;;8.03;64.93
44027;BME280;29696;55.698;37.460;2023-04-01T15:17:00;98574.06;;;7.97;64.93
44027;BME280;29696;55.698;37.460;2023-04-01T15:23:21;98586.69;;;7.94;65.04
44027;BME280;29696;55.698;37.460;2023-04-01T15:26:37;98585.16;;;7.91;64.79
44027;BME280;29696;55.698;37.460;2023-04-01T15:29:43;98596.00;;;7.78;65.69
44027;BME280;29696;55.698;37.460;2023-04-01T15:48:06;98609.84;;;7.71;66.85
44027;BME280;29696;55.698;37.460;2023-04-01T15:58:46;98622.28;;;7.78;66.84
44027;BME280;29696;55.698;37.460;2023-04-01T16:04:50;98632.13;;;7.67;68.28
44027;BME280;29696;55.698;37.460;2023-04-01T16:22:35;98664.88;;;7.14;70.61
44027;BME280;29696;55.698;37.460;2023-04-01T16:39:50;98673.16;;;7.00;73.28
44027;BME280;29696;55.698;37.460;2023-04-01T16:42:39;98673.03;;;7.01;73.36
44027;BME280;29696;55.698;37.460;2023-04-01T16:45:33;98674.94;;;6.99;73.33
44027;BME280;29696;55.698;37.460;2023-04-01T16:48:14;98678.28;;;6.92;73.70
44027;BME280;29696;55.698;37.460;2023-04-01T16:51:12;98679.09;;;6.92;73.97
44027;BME280;29696;55.698;37.460;2023-04-01T16:53:45;98678.22;;;6.82;73.81
44027;BME280;29696;55.698;37.460;2023-04-01T16:56:40;98688.06;;;6.90;74.04
44027;BME280;29696;55.698;37.460;2023-04-01T16:59:35;98686.97;;;6.92;74.13
44027;BME280;29696;55.698;37.460;2023-04-01T17:02:26;98684.19;;;6.94;74.06
44027;BME280;29696;55.698;37.460;2023-04-01T17:11:38;98688.88;;;6.80;74.18
44027;BME280;29696;55.698;37.460;2023-04-01T17:17:43;98693.28;;;6.70;74.73
44027;BME280;29696;55.698;37.460;2023-04-01T17:20:20;98698.78;;;6.67;75.02
44027;BME280;29696;55.698;37.460;2023-04-01T17:26:58;98702.50;;;6.65;75.35
44027;BME280;29696;55.698;37.460;2023-04-01T17:30:28;98695.44;;;6.65;75.65
44027;BME280;29696;55.698;37.460;2023-04-01T17:36:57;98703.06;;;6.68;75.57
44027;BME280;29696;55.698;37.460;2023-04-01T17:40:08;98699.44;;;6.59;75.70
44027;BME280;29696;55.698;37.460;2023-04-01T17:45:56;98701.19;;;6.49;76.36
44027;BME280;29696;55.698;37.460;2023-04-01T17:58:48;98717.50;;;6.53;76.66
44027;BME280;29696;55.698;37.460;2023-04-01T18:11:43;98714.31;;;6.49;76.83
44027;BME280;29696;55.698;37.460;2023-04-01T18:14:22;98711.50;;;6.41;76.79
44027;BME280;29696;55.698;37.460;2023-04-01T18:23:38;98737.28;;;6.36;77.08
44027;BME280;29696;55.698;37.460;2023-04-01T18:26:28;98736.91;;;6.40;77.67
44027;BME280;29696;55.698;37.460;2023-04-01T18:32:36;98746.38;;;6.53;77.59
44027;BME280;29696;55.698;37.460;2023-04-01T18:38:29;98744.84;;;6.50;77.36
44027;BME280;29696;55.698;37.460;2023-04-01T18:42:07;98758.25;;;6.57;77.86
44027;BME280;29696;55.698;37.460;2023-04-01T18:44:25;98763.22;;;6.50;77.29
44027;BME280;29696;55.698;37.460;2023-04-01T18:47:23;98765.31;;;6.56;77.80
44027;BME280;29696;55.698;37.460;2023-04-01T18:50:22;98764.91;;;6.61;77.62
44027;BME280;29696;55.698;37.460;2023-04-01T18:53:14;98767.03;;;6.67;77.47
44027;BME280;29696;55.698;37.460;2023-04-01T18:58:37;98776.38;;;6.60;77.04
44027;BME280;29696;55.698;37.460;2023-04-01T19:01:16;98762.53;;;6.58;77.40
44027;BME280;29696;55.698;37.460;2023-04-01T19:07:19;98765.88;;;6.60;77.41
44027;BME280;29696;55.698;37.460;2023-04-01T19:09:49;98763.25;;;6.60;77.43
44027;BME280;29696;55.698;37.460;2023-04-01T19:29:33;98780.09;;;6.57;78.34
44027;BME280;29696;55.698;37.460;2023-04-01T19:51:09;98790.47;;;6.59;79.12
44027;BME280;29696;55.698;37.460;2023-04-01T19:53:46;98793.09;;;6.59;79.59
44027;BME280;29696;55.698;37.460;2023-04-01T19:56:19;98790.75;;;6.56;79.03
44027;BME280;29696;55.698;37.460;2023-04-01T19:59:24;98794.94;;;6.68;79.28
44027;BME280;29696;55.698;37.460;2023-04-01T20:04:53;98798.22;;;6.60;79.49
44027;BME280;29696;55.698;37.460;2023-04-01T20:07:31;98791.69;;;6.55;79.27
44027;BME280;29696;55.698;37.460;2023-04-01T20:10:32;98802.53;;;6.61;79.58
44027;BME280;29696;55.698;37.460;2023-04-01T20:16:49;98799.28;;;6.58;79.58
44027;BME280;29696;55.698;37.460;2023-04-01T20:20:03;98807.78;;;6.61;80.09
44027;BME280;29696;55.698;37.460;2023-04-01T20:25:53;98801.25;;;6.56;79.83
44027;BME280;29696;55.698;37.460;2023-04-01T20:28:28;98800.84;;;6.60;79.84
44027;BME280;29696;55.698;37.460;2023-04-01T20:31:21;98791.34;;;6.69;79.74
44027;BME280;29696;55.698;37.460;2023-04-01T20:40:49;98797.06;;;6.74;79.22
44027;BME280;29696;55.698;37.460;2023-04-01T20:53:29;98808.06;;;6.68;79.45
44027;BME280;29696;55.698;37.460;2023-04-01T20:56:41;98804.03;;;6.64;79.75
44027;BME280;29696;55.698;37.460;2023-04-01T21:05:51;98806.78;;;6.62;79.72
44027;BME280;29696;55.698;37.460;2023-04-01T21:12:13;98813.59;;;6.65;80.08
44027;BME280;29696;55.698;37.460;2023-04-01T21:17:58;98819.91;;;6.62;79.96
44027;BME280;29696;55.698;37.460;2023-04-01T21:26:54;98810.44;;;6.71;80.04
44027;BME280;29696;55.698;37.460;2023-04-01T21:33:03;98824.19;;;6.84;79.93
44027;BME280;29696;55.698;37.460;2023-04-01T21:52:45;98834.31;;;6.89;79.79
44027;BME280;29696;55.698;37.460;2023-04-01T22:02:20;98848.75;;;6.74;80.78
44027;BME280;29696;55.698;37.460;2023-04-01T22:05:11;98842.53;;;6.75;80.70
44027;BME280;29696;55.698;37.460;2023-04-01T22:10:59;98844.44;;;6.73;81.10
44027;BME280;29696;55.698;37.460;2023-04-01T22:14:09;98845.66;;;6.69;81.19
44027;BME280;29696;55.698;37.460;2023-04-01T22:17:12;98843.59;;;6.72;81.19
44027;BME280;29696;55.698;37.460;2023-04-01T22:27:07;98841.16;;;6.80;81.40
44027;BME280;29696;55.698;37.460;2023-04-01T22:30:16;98835.66;;;6.83;81.43
44027;BME280;29696;55.698;37.460;2023-04-01T22:32:47;98833.81;;;6.74;81.48
44027;BME280;29696;55.698;37.460;2023-04-01T22:36:11;98844.66;;;6.91;81.54
44027;BME280;29696;55.698;37.460;2023-04-01T22:42:01;98846.09;;;6.95;81.44
44027;BME280;29696;55.698;37.460;2023-04-01T23:00:33;98848.78;;;6.83;84.39
44027;BME280;29696;55.698;37.460;2023-04-01T23:18:57;98838.09;;;6.75;84.56
44027;BME280;29696;55.698;37.460;2023-04-01T23:21:44;98847.50;;;6.78;84.84
44027;BME280;29696;55.698;37.460;2023-04-01T23:24:21;98851.94;;;6.77;85.12
44027;BME280;29696;55.698;37.460;2023-04-01T23:26:56;98857.91;;;6.79;85.28
44027;BME280;29696;55.698;37.460;2023-04-01T23:29:26;98853.03;;;6.75;84.86
44027;BME280;29696;55.698;37.460;2023-04-01T23:32:00;98850.53;;;6.73;84.97
44027;BME280;29696;55.698;37.460;2023-04-01T23:37:15;98846.94;;;6.74;85.09
44027;BME280;29696;55.698;37.460;2023-04-01T23:39:45;98851.69;;;6.80;84.93
44027;BME280;29696;55.698;37.460;2023-04-01T23:45:13;98852.50;;;6.81;84.45
44027;BME280;29696;55.698;37.460;2023-04-01T23:47:45;98852.66;;;6.79;84.89
44027;BME280;29696;55.698;37.460;2023-04-01T23:50:18;98858.47;;;6.83;84.94
44027;BME280;29696;55.698;37.460;2023-04-01T23:52:48;98848.78;;;6.83;85.22
44027;BME280;29696;55.698;37.460;2023-04-01T23:55:25;98858.97;;;6.98;84.89
44027;BME280;29696;55.698;37.460;2023-04-01T23:58:26;98862.28;;;7.00;84.45
